createdAt,value
2023-04-07T00:00:32.621Z,117
2023-04-07T00:01:39.664Z,120
2023-04-07T00:02:46.436Z,111
2023-04-07T00:03:53.426Z,115
2023-04-07T00:05:00.240Z,114
2023-04-07T00:06:06.924Z,115
2023-04-07T00:07:13.672Z,115
2023-04-07T00:08:20.417Z,113
2023-04-07T00:09:27.214Z,115
2023-04-07T00:10:34.032Z,119
2023-04-07T00:11:40.864Z,114
2023-04-07T00:12:47.671Z,117
2023-04-07T00:13:54.871Z,114
2023-04-07T00:15:01.372Z,118
2023-04-07T00:16:08.382Z,118
2023-04-07T00:17:15.146Z,116
2023-04-07T00:18:21.847Z,116
2023-04-07T00:19:28.828Z,117
2023-04-07T00:20:35.583Z,118
2023-04-07T00:21:42.275Z,116
2023-04-07T00:22:49.011Z,117
2023-04-07T00:23:56.086Z,122
2023-04-07T00:25:02.735Z,118
2023-04-07T00:26:09.836Z,115
2023-04-07T00:27:16.522Z,120
2023-04-07T00:28:23.319Z,127
2023-04-07T00:29:30.154Z,118
2023-04-07T00:30:37.058Z,114
2023-04-07T00:31:43.870Z,113
2023-04-07T00:32:50.499Z,116
2023-04-07T00:33:57.514Z,117
2023-04-07T00:35:04.216Z,118
2023-04-07T00:36:11.168Z,126
2023-04-07T00:37:17.845Z,115
2023-04-07T00:38:24.531Z,106
2023-04-07T00:39:31.264Z,114
2023-04-07T00:40:38.193Z,125
2023-04-07T00:41:45.014Z,116
2023-04-07T00:42:51.779Z,123
2023-04-07T00:43:58.529Z,126
2023-04-07T00:45:05.278Z,117
2023-04-07T00:46:12.347Z,114
2023-04-07T00:47:19.276Z,121
2023-04-07T00:48:26.034Z,117
2023-04-07T00:49:32.806Z,109
2023-04-07T00:50:39.622Z,100
2023-04-07T00:51:46.403Z,102
2023-04-07T00:52:53.159Z,102
2023-04-07T00:53:59.960Z,117
2023-04-07T00:55:06.786Z,115
2023-04-07T00:56:13.634Z,115
2023-04-07T00:57:20.494Z,119
2023-04-07T00:58:27.326Z,109
2023-04-07T00:59:34.011Z,117
2023-04-07T01:00:40.874Z,111
2023-04-07T01:01:52.688Z,121
2023-04-07T01:03:02.575Z,110
2023-04-07T01:04:09.177Z,108
2023-04-07T01:05:18.896Z,107
2023-04-07T01:06:33.867Z,113
2023-04-07T01:07:40.630Z,109
2023-04-07T01:08:50.107Z,115
2023-04-07T01:10:06.990Z,122
2023-04-07T01:11:13.790Z,111
2023-04-07T01:12:23.516Z,108
2023-04-07T01:13:35.230Z,108
2023-04-07T01:14:41.995Z,109
2023-04-07T01:15:51.657Z,114
2023-04-07T01:16:58.400Z,108
2023-04-07T01:18:05.334Z,111
2023-04-07T01:19:14.552Z,108
2023-04-07T01:20:31.517Z,109
2023-04-07T01:21:38.347Z,112
2023-04-07T01:22:45.169Z,109
2023-04-07T01:23:54.871Z,111
2023-04-07T01:25:04.151Z,113
2023-04-07T01:26:16.042Z,109
2023-04-07T01:27:25.590Z,111
2023-04-07T01:28:37.625Z,108
2023-04-07T01:29:47.241Z,113
2023-04-07T01:30:54.013Z,112
2023-04-07T01:32:00.838Z,109
2023-04-07T01:33:07.653Z,108
2023-04-07T01:34:14.465Z,117
2023-04-07T01:35:21.282Z,115
2023-04-07T01:36:28.094Z,113
2023-04-07T01:37:34.897Z,111
2023-04-07T01:38:41.662Z,117
2023-04-07T01:39:48.434Z,111
2023-04-07T01:40:55.225Z,111
2023-04-07T01:42:02.126Z,108
2023-04-07T01:43:08.834Z,113
2023-04-07T01:44:15.664Z,117
2023-04-07T01:45:22.367Z,108
2023-04-07T01:46:29.240Z,107
2023-04-07T01:47:36.327Z,111
2023-04-07T01:48:42.761Z,113
2023-04-07T01:49:49.475Z,114
2023-04-07T01:50:56.129Z,114
2023-04-07T01:52:02.897Z,114
2023-04-07T01:53:09.668Z,109
2023-04-07T01:54:16.315Z,120
2023-04-07T01:55:23.048Z,120
2023-04-07T01:56:29.882Z,113
2023-04-07T01:57:36.657Z,117
2023-04-07T01:58:43.365Z,114
2023-04-07T01:59:50.242Z,112
2023-04-07T02:00:57.057Z,112
2023-04-07T02:02:03.940Z,114
2023-04-07T02:03:10.929Z,118
2023-04-07T02:04:17.388Z,115
2023-04-07T02:05:29.345Z,113
2023-04-07T02:06:36.054Z,112
2023-04-07T02:07:42.821Z,109
2023-04-07T02:08:57.529Z,114
2023-04-07T02:10:04.206Z,121
2023-04-07T02:11:11.281Z,118
2023-04-07T02:12:18.042Z,117
2023-04-07T02:13:24.843Z,118
2023-04-07T02:14:31.630Z,116
2023-04-07T02:15:38.420Z,120
2023-04-07T02:16:46.888Z,125
2023-04-07T02:17:51.879Z,116
2023-04-07T02:18:58.605Z,112
2023-04-07T02:20:05.405Z,111
2023-04-07T02:21:12.186Z,110
2023-04-07T02:22:18.968Z,107
2023-04-07T02:23:25.723Z,108
2023-04-07T02:24:32.580Z,113
2023-04-07T02:25:39.442Z,106
2023-04-07T02:26:46.164Z,113
2023-04-07T02:27:52.884Z,107
2023-04-07T02:28:59.801Z,114
2023-04-07T02:30:06.521Z,107
2023-04-07T02:31:13.821Z,114
2023-04-07T02:32:20.424Z,109
2023-04-07T02:33:27.156Z,108
2023-04-07T02:34:33.954Z,119
2023-04-07T02:35:40.719Z,110
2023-04-07T02:36:47.703Z,109
2023-04-07T02:37:54.467Z,108
2023-04-07T02:39:01.118Z,106
2023-04-07T02:40:07.789Z,109
2023-04-07T02:41:14.637Z,106
2023-04-07T02:42:21.400Z,116
2023-04-07T02:43:28.256Z,112
2023-04-07T02:44:34.962Z,110
2023-04-07T02:45:41.669Z,114
2023-04-07T02:46:48.338Z,111
2023-04-07T02:47:55.380Z,111
2023-04-07T02:49:02.019Z,118
2023-04-07T02:50:08.787Z,108
2023-04-07T02:51:15.466Z,118
2023-04-07T02:52:22.180Z,113
2023-04-07T02:53:28.933Z,114
2023-04-07T02:54:35.689Z,110
2023-04-07T02:55:42.394Z,113
2023-04-07T02:56:49.189Z,112
2023-04-07T02:57:55.944Z,106
2023-04-07T02:59:02.830Z,114
2023-04-07T03:00:09.625Z,110
2023-04-07T03:01:16.588Z,111
2023-04-07T03:02:23.390Z,120
2023-04-07T03:03:30.133Z,108
2023-04-07T03:04:36.798Z,109
2023-04-07T03:05:43.649Z,111
2023-04-07T03:06:50.446Z,115
2023-04-07T03:07:57.450Z,116
2023-04-07T03:09:04.189Z,113
2023-04-07T03:10:11.152Z,110
2023-04-07T03:11:17.916Z,111
2023-04-07T03:12:24.622Z,106
2023-04-07T03:13:31.482Z,108
2023-04-07T03:14:38.305Z,106
2023-04-07T03:15:45.102Z,108
2023-04-07T03:16:51.930Z,118
2023-04-07T03:17:58.757Z,112
2023-04-07T03:19:05.449Z,110
2023-04-07T03:20:12.229Z,109
2023-04-07T03:21:19.118Z,110
2023-04-07T03:22:25.834Z,111
2023-04-07T03:23:32.504Z,110
2023-04-07T03:24:39.232Z,116
2023-04-07T03:25:47.506Z,107
2023-04-07T03:26:52.944Z,112
2023-04-07T03:27:59.642Z,112
2023-04-07T03:29:06.535Z,109
2023-04-07T03:30:13.277Z,116
2023-04-07T03:31:20.187Z,119
2023-04-07T03:32:26.877Z,112
2023-04-07T03:33:33.624Z,110
2023-04-07T03:34:40.299Z,116
2023-04-07T03:35:46.993Z,112
2023-04-07T03:36:53.827Z,112
2023-04-07T03:38:00.780Z,116
2023-04-07T03:39:07.559Z,112
2023-04-07T03:40:14.250Z,111
2023-04-07T03:41:21.123Z,116
2023-04-07T03:42:27.963Z,119
2023-04-07T03:43:34.707Z,114
2023-04-07T03:44:41.375Z,120
2023-04-07T03:45:48.091Z,118
2023-04-07T03:46:54.880Z,117
2023-04-07T03:48:01.643Z,117
2023-04-07T03:49:08.645Z,117
2023-04-07T03:50:15.370Z,113
2023-04-07T03:51:22.201Z,113
2023-04-07T03:52:28.968Z,121
2023-04-07T03:53:35.833Z,122
2023-04-07T03:54:42.670Z,119
2023-04-07T03:55:49.415Z,124
2023-04-07T03:56:56.156Z,112
2023-04-07T03:58:02.976Z,110
2023-04-07T03:59:09.768Z,117
2023-04-07T04:00:16.628Z,113
2023-04-07T04:01:23.387Z,106
2023-04-07T04:02:30.224Z,110
2023-04-07T04:03:36.998Z,112
2023-04-07T04:04:43.661Z,118
2023-04-07T04:05:50.364Z,117
2023-04-07T04:06:57.099Z,116
2023-04-07T04:08:03.908Z,117
2023-04-07T04:09:10.729Z,119
2023-04-07T04:10:17.493Z,118
2023-04-07T04:11:24.259Z,118
2023-04-07T04:12:31.025Z,110
2023-04-07T04:13:37.767Z,105
2023-04-07T04:14:44.493Z,117
2023-04-07T04:15:51.260Z,118
2023-04-07T04:16:58.132Z,124
2023-04-07T04:18:04.962Z,119
2023-04-07T04:19:11.640Z,115
2023-04-07T04:20:18.366Z,109
2023-04-07T04:21:25.075Z,107
2023-04-07T04:22:31.994Z,112
2023-04-07T04:23:38.802Z,113
2023-04-07T04:24:45.480Z,112
2023-04-07T04:25:52.166Z,112
2023-04-07T04:26:58.954Z,109
2023-04-07T04:28:05.693Z,116
2023-04-07T04:29:12.502Z,115
2023-04-07T04:30:19.212Z,121
2023-04-07T04:31:26.029Z,116
2023-04-07T04:32:32.845Z,121
2023-04-07T04:33:39.630Z,114
2023-04-07T04:34:46.344Z,122
2023-04-07T04:35:53.179Z,111
2023-04-07T04:36:59.954Z,108
2023-04-07T04:38:06.682Z,112
2023-04-07T04:39:13.500Z,120
2023-04-07T04:40:20.337Z,114
2023-04-07T04:41:27.109Z,109
2023-04-07T04:42:33.903Z,119
2023-04-07T04:43:40.635Z,110
2023-04-07T04:44:47.510Z,113
2023-04-07T04:45:54.331Z,107
2023-04-07T04:47:01.067Z,107
2023-04-07T04:48:07.884Z,115
2023-04-07T04:49:14.699Z,114
2023-04-07T04:50:21.624Z,113
2023-04-07T04:51:28.466Z,112
2023-04-07T04:52:35.140Z,112
2023-04-07T04:53:42.019Z,114
2023-04-07T04:54:48.763Z,108
2023-04-07T04:55:55.464Z,111
2023-04-07T04:57:02.152Z,113
2023-04-07T04:58:08.961Z,116
2023-04-07T04:59:15.649Z,111
2023-04-07T05:00:22.681Z,112
2023-04-07T05:01:30.525Z,109
2023-04-07T05:02:36.616Z,114
2023-04-07T05:03:43.350Z,116
2023-04-07T05:04:50.034Z,114
2023-04-07T05:05:56.643Z,111
2023-04-07T05:07:03.448Z,118
2023-04-07T05:08:10.264Z,120
2023-04-07T05:09:16.987Z,106
2023-04-07T05:10:23.635Z,113
2023-04-07T05:11:30.391Z,108
2023-04-07T05:12:37.237Z,110
2023-04-07T05:13:44.024Z,109
2023-04-07T05:14:50.746Z,107
2023-04-07T05:15:57.670Z,108
2023-04-07T05:17:04.336Z,112
2023-04-07T05:18:11.254Z,108
2023-04-07T05:19:18.103Z,106
2023-04-07T05:20:24.727Z,110
2023-04-07T05:21:31.478Z,108
2023-04-07T05:22:38.479Z,108
2023-04-07T05:23:45.138Z,106
2023-04-07T05:24:52.114Z,112
2023-04-07T05:25:58.884Z,113
2023-04-07T05:27:05.663Z,104
2023-04-07T05:28:12.332Z,106
2023-04-07T05:29:19.147Z,104
2023-04-07T05:30:25.895Z,106
2023-04-07T05:31:32.576Z,104
2023-04-07T05:32:39.405Z,106
2023-04-07T05:33:46.203Z,104
2023-04-07T05:34:53.036Z,101
2023-04-07T05:35:59.825Z,105
2023-04-07T05:37:06.691Z,102
2023-04-07T05:38:13.484Z,105
2023-04-07T05:39:20.259Z,108
2023-04-07T05:40:27.097Z,104
2023-04-07T05:41:33.733Z,105
2023-04-07T05:42:40.559Z,104
2023-04-07T05:43:47.210Z,105
2023-04-07T05:44:53.975Z,107
2023-04-07T05:46:00.867Z,116
2023-04-07T05:47:07.632Z,107
2023-04-07T05:48:14.374Z,110
2023-04-07T05:49:21.202Z,112
2023-04-07T05:50:27.956Z,112
2023-04-07T05:51:34.773Z,116
2023-04-07T05:52:41.561Z,115
2023-04-07T05:53:48.381Z,107
2023-04-07T05:54:55.044Z,109
2023-04-07T05:56:01.969Z,110
2023-04-07T05:57:08.826Z,114
2023-04-07T05:58:15.631Z,108
2023-04-07T05:59:22.441Z,119
2023-04-07T06:00:29.287Z,110
2023-04-07T06:01:36.256Z,103
2023-04-07T06:02:43.213Z,103
2023-04-07T06:03:49.949Z,104
2023-04-07T06:04:56.602Z,108
2023-04-07T06:06:03.433Z,110
2023-04-07T06:07:10.233Z,111
2023-04-07T06:08:17.106Z,111
2023-04-07T06:09:23.928Z,108
2023-04-07T06:10:30.758Z,112
2023-04-07T06:11:37.533Z,112
2023-04-07T06:12:44.316Z,118
2023-04-07T06:13:51.417Z,119
2023-04-07T06:14:57.888Z,124
2023-04-07T06:16:04.743Z,120
2023-04-07T06:17:11.516Z,108
2023-04-07T06:18:18.252Z,105
2023-04-07T06:19:25.139Z,105
2023-04-07T06:20:31.955Z,112
2023-04-07T06:21:38.618Z,107
2023-04-07T06:22:45.348Z,114
2023-04-07T06:23:52.258Z,109
2023-04-07T06:24:59.119Z,113
2023-04-07T06:26:05.923Z,110
2023-04-07T06:27:15.317Z,106
2023-04-07T06:28:22.163Z,108
2023-04-07T06:29:28.962Z,107
2023-04-07T06:30:38.358Z,103
2023-04-07T06:31:45.120Z,104
2023-04-07T06:32:52.035Z,106
2023-04-07T06:33:58.752Z,110
2023-04-07T06:35:05.558Z,105
2023-04-07T06:36:12.349Z,103
2023-04-07T06:37:20.219Z,109
2023-04-07T06:38:27.259Z,110
2023-04-07T06:39:34.055Z,102
2023-04-07T06:40:40.777Z,99
2023-04-07T06:41:47.559Z,102
2023-04-07T06:42:54.393Z,100
2023-04-07T06:44:01.146Z,101
2023-04-07T06:45:08.227Z,100
2023-04-07T06:46:14.799Z,100
2023-04-07T06:47:21.445Z,102
2023-04-07T06:48:28.368Z,101
2023-04-07T06:49:37.031Z,106
2023-04-07T06:50:41.855Z,109
2023-04-07T06:51:51.160Z,104
2023-04-07T06:52:58.058Z,105
2023-04-07T06:54:04.750Z,112
2023-04-07T06:55:11.765Z,108
2023-04-07T06:56:18.578Z,109
2023-04-07T06:57:25.307Z,111
2023-04-07T06:58:32.034Z,110
2023-04-07T06:59:38.878Z,111
2023-04-07T07:00:45.748Z,103
2023-04-07T07:01:52.562Z,103
2023-04-07T07:02:59.319Z,103
2023-04-07T07:04:06.051Z,113
2023-04-07T07:05:12.776Z,112
2023-04-07T07:06:19.826Z,109
2023-04-07T07:07:27.290Z,116
2023-04-07T07:08:33.980Z,111
2023-04-07T07:09:40.670Z,112
2023-04-07T07:10:47.454Z,105
2023-04-07T07:11:54.282Z,111
2023-04-07T07:13:01.006Z,110
2023-04-07T07:14:07.725Z,111
2023-04-07T07:15:14.608Z,114
2023-04-07T07:16:21.308Z,110
2023-04-07T07:17:28.119Z,105
2023-04-07T07:18:34.865Z,108
2023-04-07T07:19:41.678Z,107
2023-04-07T07:20:48.460Z,109
2023-04-07T07:21:55.163Z,107
2023-04-07T07:23:02.067Z,111
2023-04-07T07:24:08.822Z,106
2023-04-07T07:25:15.591Z,103
2023-04-07T07:26:22.250Z,109
2023-04-07T07:27:29.030Z,114
2023-04-07T07:28:35.964Z,110
2023-04-07T07:29:42.724Z,108
2023-04-07T07:30:49.474Z,112
2023-04-07T07:31:56.391Z,108
2023-04-07T07:33:03.040Z,105
2023-04-07T07:34:09.845Z,106
2023-04-07T07:35:16.576Z,101
2023-04-07T07:36:23.262Z,106
2023-04-07T07:37:29.933Z,109
2023-04-07T07:38:37.647Z,97
2023-04-07T07:39:43.588Z,97
2023-04-07T07:40:50.311Z,104
2023-04-07T07:41:57.058Z,105
2023-04-07T07:43:03.811Z,99
2023-04-07T07:44:10.613Z,103
2023-04-07T07:45:17.526Z,107
2023-04-07T07:46:24.354Z,113
2023-04-07T07:47:31.054Z,113
2023-04-07T07:48:37.850Z,101
2023-04-07T07:49:44.554Z,105
2023-04-07T07:50:51.398Z,105
2023-04-07T07:51:58.290Z,98
2023-04-07T07:53:04.934Z,98
2023-04-07T07:54:11.674Z,102
2023-04-07T07:55:18.357Z,98
2023-04-07T07:56:25.235Z,106
2023-04-07T07:57:31.985Z,111
2023-04-07T07:58:38.667Z,107
2023-04-07T07:59:45.398Z,105
2023-04-07T08:00:52.208Z,103
2023-04-07T08:01:59.091Z,98
2023-04-07T08:03:05.887Z,96
2023-04-07T08:04:12.642Z,101
2023-04-07T08:05:19.227Z,103
2023-04-07T08:06:26.003Z,113
2023-04-07T08:07:32.781Z,105
2023-04-07T08:08:39.535Z,109
2023-04-07T08:09:46.349Z,107
2023-04-07T08:10:53.150Z,108
2023-04-07T08:11:59.839Z,104
2023-04-07T08:13:06.749Z,111
2023-04-07T08:14:13.510Z,98
2023-04-07T08:15:20.263Z,114
2023-04-07T08:16:27.153Z,107
2023-04-07T08:17:33.825Z,114
2023-04-07T08:18:40.708Z,125
2023-04-07T08:19:47.388Z,118
2023-04-07T08:20:54.180Z,111
2023-04-07T08:22:00.908Z,118
2023-04-07T08:23:07.631Z,112
2023-04-07T08:24:14.419Z,103
2023-04-07T08:25:21.086Z,124
2023-04-07T08:26:27.824Z,117
2023-04-07T08:27:34.603Z,107
2023-04-07T08:28:41.472Z,100
2023-04-07T08:29:48.448Z,106
2023-04-07T08:31:02.871Z,103
2023-04-07T08:32:09.484Z,100
2023-04-07T08:33:16.292Z,106
2023-04-07T08:34:23.052Z,98
2023-04-07T08:35:29.703Z,105
2023-04-07T08:36:36.514Z,105
2023-04-07T08:37:43.270Z,113
2023-04-07T08:38:50.219Z,112
2023-04-07T08:39:56.890Z,104
2023-04-07T08:41:03.600Z,97
2023-04-07T08:42:15.383Z,108
2023-04-07T08:43:22.053Z,115
2023-04-07T08:44:28.709Z,119
2023-04-07T08:45:35.605Z,107
2023-04-07T08:46:42.349Z,102
2023-04-07T08:47:49.093Z,102
2023-04-07T08:48:55.823Z,103
2023-04-07T08:50:02.607Z,106
2023-04-07T08:51:14.505Z,102
2023-04-07T08:52:21.209Z,99
2023-04-07T08:53:28.021Z,105
2023-04-07T08:54:34.823Z,105
2023-04-07T08:55:41.505Z,110
2023-04-07T08:56:48.345Z,111
2023-04-07T08:57:55.009Z,115
2023-04-07T08:59:01.865Z,109
2023-04-07T09:00:08.782Z,112
2023-04-07T09:01:15.648Z,113
2023-04-07T09:02:22.399Z,114
2023-04-07T09:03:29.055Z,113
2023-04-07T09:04:35.788Z,111
2023-04-07T09:05:42.579Z,107
2023-04-07T09:06:52.302Z,119
2023-04-07T09:07:59.068Z,117
2023-04-07T09:09:05.896Z,119
2023-04-07T09:10:12.612Z,107
2023-04-07T09:11:19.473Z,123
2023-04-07T09:12:26.236Z,119
2023-04-07T09:13:33.024Z,120
2023-04-07T09:14:39.682Z,113
2023-04-07T09:15:46.432Z,123
2023-04-07T09:16:53.524Z,119
2023-04-07T09:18:00.289Z,116
2023-04-07T09:19:07.141Z,120
2023-04-07T09:20:13.946Z,115
2023-04-07T09:21:20.736Z,122
2023-04-07T09:22:27.457Z,115
2023-04-07T09:23:39.192Z,122
2023-04-07T09:24:45.987Z,113
2023-04-07T09:25:52.793Z,113
2023-04-07T09:26:59.565Z,107
2023-04-07T09:28:14.163Z,116
2023-04-07T09:29:20.856Z,114
2023-04-07T09:30:27.556Z,109
2023-04-07T09:31:34.235Z,118
2023-04-07T09:32:49.101Z,114
2023-04-07T09:33:55.653Z,126
2023-04-07T09:35:02.449Z,122
2023-04-07T09:36:09.362Z,120
2023-04-07T09:37:16.140Z,120
2023-04-07T09:38:23.009Z,131
2023-04-07T09:39:29.626Z,135
2023-04-07T09:40:36.434Z,140
2023-04-07T09:41:43.311Z,141
2023-04-07T09:42:49.935Z,156
2023-04-07T09:43:56.679Z,151
2023-04-07T09:45:03.400Z,153
2023-04-07T09:46:10.369Z,152
2023-04-07T09:47:19.818Z,144
2023-04-07T09:48:34.636Z,142
2023-04-07T09:49:41.375Z,130
2023-04-07T09:50:56.141Z,121
2023-04-07T09:52:10.835Z,122
2023-04-07T09:53:17.632Z,121
2023-04-07T09:54:24.360Z,109
2023-04-07T09:55:36.399Z,111
2023-04-07T09:56:43.156Z,116
2023-04-07T09:57:49.775Z,105
2023-04-07T09:58:56.501Z,94
2023-04-07T10:00:03.317Z,92
2023-04-07T10:01:10.711Z,100
2023-04-07T10:02:17.453Z,110
2023-04-07T10:03:24.226Z,92
2023-04-07T10:04:31.052Z,94
2023-04-07T10:05:37.694Z,97
2023-04-07T10:06:44.497Z,91
2023-04-07T10:07:51.280Z,96
2023-04-07T10:08:58.087Z,97
2023-04-07T10:10:04.791Z,100
2023-04-07T10:11:11.604Z,92
2023-04-07T10:12:18.252Z,88
2023-04-07T10:13:25.067Z,74
2023-04-07T10:14:31.792Z,86
2023-04-07T10:15:38.509Z,82
2023-04-07T10:16:45.275Z,91
2023-04-07T10:17:52.168Z,89
2023-04-07T10:18:58.904Z,90
2023-04-07T10:20:05.617Z,77
2023-04-07T10:21:12.556Z,83
2023-04-07T10:22:19.235Z,94
2023-04-07T10:23:26.068Z,85
2023-04-07T10:24:40.775Z,75
2023-04-07T10:25:57.620Z,83
2023-04-07T10:27:04.425Z,85
2023-04-07T10:28:11.150Z,89
2023-04-07T10:29:17.917Z,91
2023-04-07T10:30:24.686Z,97
2023-04-07T10:31:31.582Z,95
2023-04-07T10:32:38.273Z,93
2023-04-07T10:33:50.395Z,95
2023-04-07T10:34:56.821Z,89
2023-04-07T10:36:03.697Z,96
2023-04-07T10:37:10.368Z,80
2023-04-07T10:38:17.199Z,83
2023-04-07T10:39:24.016Z,94
2023-04-07T10:40:30.817Z,103
2023-04-07T10:41:37.656Z,93
2023-04-07T10:42:44.323Z,103
2023-04-07T10:43:53.961Z,101
2023-04-07T10:45:00.798Z,99
2023-04-07T10:46:10.593Z,93
2023-04-07T10:47:17.495Z,93
2023-04-07T10:48:24.185Z,116
2023-04-07T10:49:30.881Z,110
2023-04-07T10:50:40.209Z,109
2023-04-07T10:51:46.930Z,109
2023-04-07T10:53:03.662Z,114
2023-04-07T10:54:16.283Z,110
2023-04-07T10:55:26.203Z,112
2023-04-07T10:56:33.076Z,101
2023-04-07T10:57:49.945Z,115
2023-04-07T10:59:06.910Z,114
2023-04-07T11:00:18.815Z,108
2023-04-07T11:01:25.789Z,109
2023-04-07T11:02:32.989Z,106
2023-04-07T11:03:39.439Z,100
2023-04-07T11:04:46.314Z,111
2023-04-07T11:05:52.875Z,98
2023-04-07T11:07:09.665Z,102
2023-04-07T11:08:16.394Z,108
2023-04-07T11:09:33.273Z,103
2023-04-07T11:10:40.001Z,102
2023-04-07T11:11:46.755Z,110
2023-04-07T11:12:53.469Z,114
2023-04-07T11:14:03.116Z,114
2023-04-07T11:15:09.845Z,110
2023-04-07T11:16:21.657Z,116
2023-04-07T11:17:28.478Z,113
2023-04-07T11:18:35.082Z,105
2023-04-07T11:19:41.853Z,108
2023-04-07T11:20:53.731Z,108
2023-04-07T11:22:00.469Z,112
2023-04-07T11:23:17.442Z,106
2023-04-07T11:24:24.262Z,118
2023-04-07T11:25:39.077Z,110
2023-04-07T11:26:45.916Z,116
2023-04-07T11:27:52.678Z,116
2023-04-07T11:28:59.372Z,117
2023-04-07T11:30:06.073Z,120
2023-04-07T11:31:13.182Z,116
2023-04-07T11:32:25.776Z,115
2023-04-07T11:33:31.803Z,115
2023-04-07T11:34:38.739Z,101
2023-04-07T11:35:45.479Z,110
2023-04-07T11:36:57.380Z,122
2023-04-07T11:38:14.273Z,122
2023-04-07T11:39:20.989Z,112
2023-04-07T11:40:27.822Z,118
2023-04-07T11:41:37.525Z,116
2023-04-07T11:42:44.216Z,118
2023-04-07T11:43:50.912Z,115
2023-04-07T11:45:08.470Z,101
2023-04-07T11:46:19.721Z,103
2023-04-07T11:47:26.497Z,120
2023-04-07T11:48:38.305Z,116
2023-04-07T11:49:45.163Z,109
2023-04-07T11:50:52.026Z,121
2023-04-07T11:51:58.664Z,120
2023-04-07T11:53:05.441Z,125
2023-04-07T11:54:12.270Z,124
2023-04-07T11:55:20.918Z,127
2023-04-07T11:56:25.881Z,119
2023-04-07T11:57:32.629Z,114
2023-04-07T11:58:39.430Z,114
2023-04-07T11:59:53.942Z,114
2023-04-07T12:01:10.946Z,121
2023-04-07T12:02:17.819Z,113
2023-04-07T12:03:34.698Z,108
2023-04-07T12:04:44.525Z,107
2023-04-07T12:05:56.351Z,94
2023-04-07T12:07:03.047Z,103
2023-04-07T12:08:09.895Z,108
2023-04-07T12:09:16.635Z,118
2023-04-07T12:10:33.561Z,115
2023-04-07T12:11:40.298Z,112
2023-04-07T12:12:47.076Z,106
2023-04-07T12:13:53.805Z,99
2023-04-07T12:15:00.659Z,92
2023-04-07T12:16:07.718Z,89
2023-04-07T12:17:14.359Z,87
2023-04-07T12:18:23.669Z,87
2023-04-07T12:19:30.487Z,89
2023-04-07T12:20:37.880Z,96
2023-04-07T12:21:44.085Z,92
2023-04-07T12:22:50.868Z,84
2023-04-07T12:23:57.543Z,96
2023-04-07T12:25:04.307Z,89
2023-04-07T12:26:11.331Z,107
2023-04-07T12:27:18.155Z,92
2023-04-07T12:28:24.841Z,95
2023-04-07T12:29:31.522Z,89
2023-04-07T12:30:38.245Z,82
2023-04-07T12:31:45.188Z,76
2023-04-07T12:32:51.998Z,79
2023-04-07T12:33:58.799Z,85
2023-04-07T12:35:05.673Z,79
2023-04-07T12:36:12.478Z,78
2023-04-07T12:37:19.399Z,85
2023-04-07T12:38:26.133Z,83
2023-04-07T12:39:32.930Z,85
2023-04-07T12:40:39.690Z,94
2023-04-07T12:41:46.388Z,93
2023-04-07T12:42:53.076Z,100
2023-04-07T12:44:00.002Z,93
2023-04-07T12:45:06.737Z,94
2023-04-07T12:46:13.807Z,105
2023-04-07T12:47:20.614Z,96
2023-04-07T12:48:27.389Z,95
2023-04-07T12:49:34.262Z,93
2023-04-07T12:50:41.025Z,85
2023-04-07T12:51:47.712Z,97
2023-04-07T12:52:54.392Z,85
2023-04-07T12:54:01.202Z,90
2023-04-07T12:55:08.091Z,90
2023-04-07T12:56:14.855Z,93
2023-04-07T12:57:21.562Z,94
2023-04-07T12:58:28.276Z,88
2023-04-07T12:59:35.092Z,83
2023-04-07T13:00:42.007Z,85
2023-04-07T13:01:50.732Z,83
2023-04-07T13:02:55.534Z,79
2023-04-07T13:04:02.349Z,83
2023-04-07T13:05:08.919Z,82
2023-04-07T13:06:15.656Z,81
2023-04-07T13:07:22.420Z,91
2023-04-07T13:08:29.215Z,79
2023-04-07T13:09:36.076Z,73
2023-04-07T13:10:42.814Z,74
2023-04-07T13:11:49.521Z,76
2023-04-07T13:12:56.289Z,64
2023-04-07T13:14:03.017Z,74
2023-04-07T13:15:09.772Z,72
2023-04-07T13:16:16.621Z,67
2023-04-07T13:17:23.351Z,77
2023-04-07T13:18:30.079Z,76
2023-04-07T13:19:37.545Z,65
2023-04-07T13:20:43.897Z,71
2023-04-07T13:21:51.067Z,63
2023-04-07T13:23:07.387Z,71
2023-04-07T13:24:04.020Z,63
2023-04-07T13:25:10.778Z,76
2023-04-07T13:26:17.537Z,64
2023-04-07T13:27:24.527Z,67
2023-04-07T13:28:31.292Z,67
2023-04-07T13:29:37.969Z,69
2023-04-07T13:30:44.841Z,67
2023-04-07T13:31:51.681Z,64
2023-04-07T13:32:58.497Z,58
2023-04-07T13:34:05.188Z,66
2023-04-07T13:35:11.902Z,62
2023-04-07T13:36:23.227Z,69
2023-04-07T13:37:28.461Z,63
2023-04-07T13:38:35.214Z,73
2023-04-07T13:39:42.204Z,69
2023-04-07T13:40:48.886Z,60
2023-04-07T13:41:55.627Z,73
2023-04-07T13:43:02.445Z,58
2023-04-07T13:44:09.310Z,65
2023-04-07T13:45:16.147Z,65
2023-04-07T13:46:27.719Z,67
2023-04-07T13:47:29.723Z,74
2023-04-07T13:48:39.248Z,71
2023-04-07T13:49:46.072Z,67
2023-04-07T13:50:52.958Z,63
2023-04-07T13:51:59.818Z,78
2023-04-07T13:53:06.584Z,69
2023-04-07T13:54:13.230Z,69
2023-04-07T13:55:19.909Z,75
2023-04-07T13:56:26.780Z,79
2023-04-07T13:57:33.648Z,74
2023-04-07T13:58:40.381Z,75
2023-04-07T13:59:47.150Z,82
2023-04-07T14:00:53.961Z,80
2023-04-07T14:02:00.903Z,87
2023-04-07T14:03:08.062Z,89
2023-04-07T14:04:14.576Z,107
2023-04-07T14:05:21.176Z,112
2023-04-07T14:06:28.026Z,106
2023-04-07T14:07:34.999Z,106
2023-04-07T14:08:41.884Z,106
2023-04-07T14:09:48.624Z,115
2023-04-07T14:10:55.523Z,103
2023-04-07T14:12:02.263Z,107
2023-04-07T14:13:09.197Z,98
2023-04-07T14:14:15.982Z,108
2023-04-07T14:15:22.816Z,113
2023-04-07T14:16:29.763Z,112
2023-04-07T14:17:36.414Z,104
2023-04-07T14:18:43.097Z,107
2023-04-07T14:19:49.906Z,108
2023-04-07T14:20:56.586Z,102
2023-04-07T14:22:03.308Z,92
2023-04-07T14:23:10.085Z,96
2023-04-07T14:24:16.893Z,91
2023-04-07T14:25:23.655Z,89
2023-04-07T14:26:30.445Z,100
2023-04-07T14:27:37.346Z,102
2023-04-07T14:28:44.090Z,92
2023-04-07T14:29:50.981Z,93
2023-04-07T14:30:57.746Z,89
2023-04-07T14:32:04.411Z,90
2023-04-07T14:33:11.273Z,91
2023-04-07T14:34:18.141Z,89
2023-04-07T14:35:24.956Z,96
2023-04-07T14:36:31.784Z,106
2023-04-07T14:37:38.572Z,112
2023-04-07T14:38:45.327Z,105
2023-04-07T14:40:02.316Z,102
2023-04-07T14:41:09.442Z,101
2023-04-07T14:42:05.782Z,95
2023-04-07T14:43:12.513Z,102
2023-04-07T14:44:19.321Z,98
2023-04-07T14:45:26.138Z,95
2023-04-07T14:46:32.902Z,97
2023-04-07T14:47:39.750Z,98
2023-04-07T14:48:46.478Z,94
2023-04-07T14:49:53.775Z,94
2023-04-07T14:51:09.168Z,100
2023-04-07T14:52:07.043Z,94
2023-04-07T14:53:13.879Z,95
2023-04-07T14:54:20.542Z,89
2023-04-07T14:55:27.291Z,88
2023-04-07T14:56:34.142Z,102
2023-04-07T14:57:40.995Z,97
2023-04-07T14:58:47.858Z,90
2023-04-07T14:59:54.690Z,98
2023-04-07T15:01:02.459Z,115
2023-04-07T15:02:08.529Z,104
2023-04-07T15:03:15.303Z,106
2023-04-07T15:04:22.220Z,101
2023-04-07T15:05:28.780Z,99
2023-04-07T15:06:35.561Z,88
2023-04-07T15:07:45.301Z,94
2023-04-07T15:08:52.110Z,108
2023-04-07T15:09:58.896Z,104
2023-04-07T15:11:05.749Z,109
2023-04-07T15:12:12.488Z,107
2023-04-07T15:13:19.249Z,95
2023-04-07T15:14:25.983Z,94
2023-04-07T15:15:32.899Z,87
2023-04-07T15:16:39.778Z,91
2023-04-07T15:17:46.618Z,97
2023-04-07T15:18:53.380Z,91
2023-04-07T15:20:00.162Z,98
2023-04-07T15:21:07.137Z,98
2023-04-07T15:22:13.913Z,102
2023-04-07T15:23:20.571Z,95
2023-04-07T15:24:27.295Z,89
2023-04-07T15:25:34.067Z,95
2023-04-07T15:26:40.959Z,91
2023-04-07T15:27:47.828Z,96
2023-04-07T15:28:54.548Z,85
2023-04-07T15:30:01.268Z,104
2023-04-07T15:31:08.085Z,102
2023-04-07T15:32:14.799Z,110
2023-04-07T15:33:21.775Z,83